createdAt,value
2019-04-05T00:00:35.524Z,80.13
2019-04-05T00:03:05.152Z,80.27
2019-04-05T00:05:35.868Z,80.36
2019-04-05T00:08:05.884Z,80.44
2019-04-05T00:10:35.488Z,80.47
2019-04-05T00:13:05.078Z,80.46
2019-04-05T00:15:34.359Z,80.44
2019-04-05T00:18:03.939Z,80.38
2019-04-05T00:20:33.222Z,80.28
2019-04-05T00:23:03.567Z,80.15
2019-04-05T00:25:33.172Z,79.95
2019-04-05T00:28:03.993Z,79.56
2019-04-05T00:30:33.673Z,79.43
2019-04-05T00:33:02.923Z,79.50
2019-04-05T00:35:35.042Z,79.59
2019-04-05T00:38:04.818Z,79.65
2019-04-05T00:40:34.050Z,79.78
2019-04-05T00:43:04.762Z,79.90
2019-04-05T00:45:34.529Z,79.93
2019-04-05T00:48:05.575Z,79.94
2019-04-05T00:50:34.832Z,80.00
2019-04-05T00:53:04.831Z,80.00
2019-04-05T00:55:34.081Z,79.94
2019-04-05T00:58:03.320Z,79.89
2019-04-05T01:00:32.691Z,79.81
2019-04-05T01:03:01.988Z,79.67
2019-04-05T01:05:31.537Z,79.52
2019-04-05T01:08:00.900Z,79.49
2019-04-05T01:10:30.163Z,79.36
2019-04-05T01:13:00.724Z,79.24
2019-04-05T01:15:40.186Z,79.07
2019-04-05T01:18:00.996Z,78.94
2019-04-05T01:20:34.574Z,78.74
2019-04-05T01:23:04.534Z,78.63
2019-04-05T01:25:37.576Z,78.37
2019-04-05T01:28:06.847Z,78.31
2019-04-05T01:30:36.598Z,78.04
2019-04-05T01:33:07.638Z,77.89
2019-04-05T01:35:36.889Z,77.75
2019-04-05T01:38:06.178Z,76.86
2019-04-05T01:40:37.090Z,76.58
2019-04-05T01:43:06.896Z,76.73
2019-04-05T01:45:36.492Z,76.87
2019-04-05T01:48:07.131Z,76.90
2019-04-05T01:50:36.373Z,76.79
2019-04-05T01:53:06.644Z,76.59
2019-04-05T01:55:36.193Z,76.92
2019-04-05T01:58:05.453Z,77.37
2019-04-05T02:00:37.428Z,77.38
2019-04-05T02:03:07.696Z,77.24
2019-04-05T02:05:38.439Z,77.45
2019-04-05T02:08:07.737Z,77.32
2019-04-05T02:10:37.495Z,77.47
2019-04-05T02:13:08.888Z,77.60
2019-04-05T02:15:38.741Z,78.01
2019-04-05T02:18:08.375Z,78.49
2019-04-05T02:20:38.324Z,78.77
2019-04-05T02:23:07.919Z,78.84
2019-04-05T02:25:37.580Z,78.62
2019-04-05T02:28:06.836Z,77.98
2019-04-05T02:30:36.520Z,77.55
2019-04-05T02:33:05.990Z,77.69
2019-04-05T02:35:38.955Z,77.78
2019-04-05T02:38:06.420Z,77.53
2019-04-05T02:40:36.311Z,77.26
2019-04-05T02:43:05.916Z,76.90
2019-04-05T02:45:36.703Z,76.93
2019-04-05T02:48:08.699Z,77.03
2019-04-05T02:50:41.723Z,76.76
2019-04-05T02:53:12.503Z,76.67
2019-04-05T02:55:42.255Z,76.88
2019-04-05T02:58:13.896Z,77.09
2019-04-05T03:00:43.793Z,76.89
2019-04-05T03:03:14.052Z,76.78
2019-04-05T03:05:43.316Z,77.07
2019-04-05T03:08:13.562Z,77.33
2019-04-05T03:11:07.041Z,77.15
2019-04-05T03:13:51.725Z,76.78
2019-04-05T03:16:39.125Z,77.32
2019-04-05T03:18:59.223Z,78.04
2019-04-05T03:21:30.650Z,78.50
2019-04-05T03:24:03.375Z,78.86
2019-04-05T03:26:35.146Z,79.05
2019-04-05T03:29:07.508Z,79.13
2019-04-05T03:31:38.633Z,79.26
2019-04-05T03:34:09.245Z,79.25
2019-04-05T03:36:39.486Z,79.21
2019-04-05T03:39:09.163Z,79.14
2019-04-05T03:41:39.892Z,79.06
2019-04-05T03:44:09.596Z,78.79
2019-04-05T03:46:54.719Z,78.10
2019-04-05T03:49:10.495Z,77.41
2019-04-05T03:51:39.971Z,77.36
2019-04-05T03:54:09.213Z,76.88
2019-04-05T03:56:38.724Z,76.95
2019-04-05T03:59:08.125Z,77.07
2019-04-05T04:01:37.373Z,77.32
2019-04-05T04:04:06.705Z,77.63
2019-04-05T04:06:36.717Z,77.58
2019-04-05T04:09:07.334Z,77.83
2019-04-05T04:11:37.374Z,77.77
2019-04-05T04:14:07.103Z,77.80
2019-04-05T04:16:36.797Z,77.87
2019-04-05T04:19:07.521Z,77.79
2019-04-05T04:22:03.705Z,77.64
2019-04-05T04:24:33.447Z,77.62
2019-04-05T04:27:03.080Z,77.64
2019-04-05T04:29:32.681Z,77.92
2019-04-05T04:32:02.660Z,78.04
2019-04-05T04:34:33.730Z,78.05
2019-04-05T04:37:03.364Z,78.01
2019-04-05T04:39:32.967Z,77.99
2019-04-05T04:42:02.919Z,78.12
2019-04-05T04:44:33.567Z,78.20
2019-04-05T04:47:03.150Z,78.20
2019-04-05T04:49:32.500Z,78.17
2019-04-05T04:52:03.074Z,77.89
2019-04-05T04:54:32.761Z,77.89
2019-04-05T04:57:02.043Z,77.95
2019-04-05T04:59:32.715Z,77.53
2019-04-05T05:02:02.088Z,77.50
2019-04-05T05:04:31.576Z,77.48
2019-04-05T05:07:02.668Z,77.28
2019-04-05T05:09:32.271Z,77.62
2019-04-05T05:12:01.638Z,77.96
2019-04-05T05:14:32.605Z,77.90
2019-04-05T05:17:02.396Z,77.98
2019-04-05T05:19:31.969Z,77.79
2019-04-05T05:22:01.540Z,78.02
2019-04-05T05:24:31.013Z,78.29
2019-04-05T05:27:01.255Z,77.98
2019-04-05T05:29:31.173Z,77.78
2019-04-05T05:32:00.641Z,77.66
2019-04-05T05:34:29.884Z,77.69
2019-04-05T05:36:59.149Z,77.94
2019-04-05T05:39:30.602Z,77.98
2019-04-05T05:41:59.871Z,77.93
2019-04-05T05:44:29.516Z,78.23
2019-04-05T05:46:58.841Z,78.37
2019-04-05T05:49:28.377Z,78.30
2019-04-05T05:51:58.143Z,78.17
2019-04-05T05:54:27.713Z,78.10
2019-04-05T05:56:57.283Z,78.27
2019-04-05T05:59:30.323Z,78.48
2019-04-05T06:01:58.775Z,78.44
2019-04-05T06:04:28.061Z,78.42
2019-04-05T06:06:58.408Z,77.98
2019-04-05T06:09:31.117Z,77.44
2019-04-05T06:12:00.407Z,77.16
2019-04-05T06:14:31.233Z,77.04
2019-04-05T06:17:00.450Z,77.08
2019-04-05T06:19:29.713Z,76.87
2019-04-05T06:21:59.379Z,76.22
2019-04-05T06:24:31.697Z,76.43
2019-04-05T06:27:01.941Z,76.71
2019-04-05T06:29:31.208Z,76.50
2019-04-05T06:32:00.492Z,76.29
2019-04-05T06:34:30.072Z,76.16
2019-04-05T06:36:59.332Z,76.19
2019-04-05T06:39:28.922Z,76.13
2019-04-05T06:41:58.209Z,76.29
2019-04-05T06:44:28.140Z,76.27
2019-04-05T06:46:57.495Z,76.37
2019-04-05T06:49:26.779Z,76.71
2019-04-05T06:51:56.355Z,77.02
2019-04-05T06:54:25.621Z,76.90
2019-04-05T06:56:54.894Z,76.08
2019-04-05T06:59:24.446Z,74.42
2019-04-05T07:01:55.504Z,74.36
2019-04-05T07:04:25.162Z,73.16
2019-04-05T07:06:57.131Z,74.21
2019-04-05T07:09:26.712Z,73.76
2019-04-05T07:11:57.206Z,73.64
2019-04-05T07:14:26.715Z,73.37
2019-04-05T07:16:55.971Z,73.13
2019-04-05T07:19:25.223Z,73.79
2019-04-05T07:21:54.484Z,73.49
2019-04-05T07:24:25.878Z,73.34
2019-04-05T07:26:55.159Z,72.50
2019-04-05T07:29:24.410Z,72.34
2019-04-05T07:31:53.696Z,72.58
2019-04-05T07:34:22.964Z,72.63
2019-04-05T07:36:52.227Z,73.22
2019-04-05T07:39:21.482Z,73.29
2019-04-05T07:41:51.351Z,72.86
2019-04-05T07:44:20.646Z,72.46
2019-04-05T07:46:49.920Z,72.71
2019-04-05T07:49:19.151Z,72.33
2019-04-05T07:51:49.233Z,72.73
2019-04-05T07:54:18.823Z,72.52
2019-04-05T07:56:48.470Z,71.33
2019-04-05T07:59:20.801Z,72.07
2019-04-05T08:01:50.560Z,71.67
2019-04-05T08:04:19.875Z,71.82
2019-04-05T08:06:50.191Z,71.63
2019-04-05T08:09:19.950Z,72.32
2019-04-05T08:11:50.406Z,71.63
2019-04-05T08:14:21.137Z,72.16
2019-04-05T08:16:51.079Z,71.06
2019-04-05T08:19:20.535Z,70.76
2019-04-05T08:21:51.076Z,69.50
2019-04-05T08:24:20.358Z,70.19
2019-04-05T08:26:49.649Z,69.94
2019-04-05T08:29:19.289Z,68.45
2019-04-05T08:31:50.367Z,68.52
2019-04-05T08:34:19.626Z,68.54
2019-04-05T08:36:48.920Z,68.28
2019-04-05T08:39:18.177Z,69.54
2019-04-05T08:41:47.457Z,69.96
2019-04-05T08:44:16.693Z,69.96
2019-04-05T08:46:46.343Z,69.54
2019-04-05T08:49:17.192Z,68.67
2019-04-05T08:51:46.797Z,67.86
2019-04-05T08:54:16.075Z,67.67
2019-04-05T08:56:47.005Z,67.03
2019-04-05T08:59:16.278Z,67.73
2019-04-05T09:01:45.595Z,67.95
2019-04-05T09:04:14.818Z,66.77
2019-04-05T09:06:46.103Z,66.85
2019-04-05T09:09:15.688Z,66.08
2019-04-05T09:11:46.746Z,64.43
2019-04-05T09:14:16.538Z,63.25
2019-04-05T09:16:46.163Z,62.46
2019-04-05T09:19:23.494Z,60.06
2019-04-05T09:21:46.445Z,62.07
2019-04-05T09:24:15.697Z,62.07
2019-04-05T09:26:44.966Z,62.27
2019-04-05T09:29:14.208Z,61.45
2019-04-05T09:31:43.500Z,63.21
2019-04-05T09:34:12.757Z,64.81
2019-04-05T09:36:43.487Z,64.61
2019-04-05T09:39:15.884Z,63.33
2019-04-05T09:41:45.180Z,63.44
2019-04-05T09:44:15.210Z,63.30
2019-04-05T09:46:47.119Z,63.61
2019-04-05T09:49:15.856Z,63.74
2019-04-05T09:51:45.130Z,63.29
2019-04-05T09:54:14.734Z,62.43
2019-04-05T09:56:44.073Z,62.52
2019-04-05T09:59:15.154Z,62.25
2019-04-05T10:01:44.393Z,60.44
2019-04-05T10:04:13.872Z,61.43
2019-04-05T10:06:43.449Z,63.14
2019-04-05T10:09:13.483Z,63.32
2019-04-05T10:11:44.744Z,62.52
2019-04-05T10:14:14.510Z,61.53
2019-04-05T10:16:44.234Z,62.20
2019-04-05T10:19:13.839Z,61.47
2019-04-05T10:21:43.448Z,61.73
2019-04-05T10:24:12.732Z,60.80
2019-04-05T10:26:41.992Z,59.31
2019-04-05T10:29:11.277Z,58.08
2019-04-05T10:31:40.958Z,57.42
2019-04-05T10:34:10.574Z,55.47
2019-04-05T10:36:39.879Z,56.19
2019-04-05T10:39:10.474Z,57.62
2019-04-05T10:41:40.728Z,58.18
2019-04-05T10:44:14.265Z,58.46
2019-04-05T10:46:43.993Z,59.16
2019-04-05T10:49:15.157Z,59.88
2019-04-05T10:51:44.585Z,59.78
2019-04-05T10:54:13.986Z,60.17
2019-04-05T10:56:43.583Z,60.35
2019-04-05T10:59:13.261Z,59.77
2019-04-05T11:01:42.604Z,59.99
2019-04-05T11:04:12.241Z,59.34
2019-04-05T11:06:42.768Z,59.71
2019-04-05T11:09:12.010Z,58.96
2019-04-05T11:11:41.258Z,59.91
2019-04-05T11:14:14.045Z,59.54
2019-04-05T11:16:41.576Z,58.75
2019-04-05T11:19:11.116Z,59.20
2019-04-05T11:21:40.400Z,57.18
2019-04-05T11:24:10.192Z,56.92
2019-04-05T11:26:39.805Z,55.81
2019-04-05T11:29:09.345Z,54.35
2019-04-05T11:31:39.013Z,52.26
2019-04-05T11:34:08.562Z,51.70
2019-04-05T11:36:39.708Z,53.50
2019-04-05T11:39:09.262Z,54.84
2019-04-05T11:41:38.848Z,53.30
2019-04-05T11:44:09.119Z,51.07
2019-04-05T11:46:39.835Z,52.73
2019-04-05T11:49:09.391Z,53.72
2019-04-05T11:51:38.672Z,54.89
2019-04-05T11:54:08.079Z,54.01
2019-04-05T11:56:37.602Z,54.25
2019-04-05T11:59:13.374Z,54.83
2019-04-05T12:01:52.292Z,54.27
2019-04-05T12:04:21.671Z,54.39
2019-04-05T12:06:52.148Z,55.43
2019-04-05T12:09:23.015Z,55.40
2019-04-05T12:11:52.706Z,55.28
2019-04-05T12:14:30.194Z,55.46
2019-04-05T12:16:54.850Z,55.61
2019-04-05T12:19:24.109Z,56.04
2019-04-05T12:21:55.501Z,57.24
2019-04-05T12:24:24.830Z,55.38
2019-04-05T12:26:54.302Z,56.55
2019-04-05T12:29:23.694Z,57.56
2019-04-05T12:31:54.415Z,57.56
2019-04-05T12:34:24.058Z,56.95
2019-04-05T12:36:54.889Z,56.19
2019-04-05T12:39:24.247Z,56.55
2019-04-05T12:41:53.643Z,56.85
2019-04-05T12:44:23.318Z,55.89
2019-04-05T12:46:53.341Z,56.04
2019-04-05T12:49:22.576Z,56.10
2019-04-05T12:51:53.384Z,56.32
2019-04-05T12:54:22.722Z,56.38
2019-04-05T12:56:54.153Z,56.36
2019-04-05T12:59:25.540Z,56.15
2019-04-05T13:01:55.185Z,56.95
2019-04-05T13:04:24.462Z,53.00
2019-04-05T13:06:55.528Z,53.57
2019-04-05T13:09:26.899Z,53.04
2019-04-05T13:11:57.393Z,53.18
2019-04-05T13:14:27.053Z,54.85
2019-04-05T13:17:02.589Z,56.32
2019-04-05T13:19:31.323Z,57.74
2019-04-05T13:22:02.812Z,58.99
2019-04-05T13:24:32.085Z,59.69
2019-04-05T13:27:01.993Z,60.64
2019-04-05T13:29:33.111Z,60.49
2019-04-05T13:32:02.724Z,59.54
2019-04-05T13:34:32.022Z,59.33
2019-04-05T13:37:01.878Z,58.75
2019-04-05T13:39:31.334Z,58.71
2019-04-05T13:42:01.774Z,57.31
2019-04-05T13:44:31.972Z,57.04
2019-04-05T13:47:01.740Z,57.74
2019-04-05T13:49:31.006Z,56.97
2019-04-05T13:52:00.591Z,57.33
2019-04-05T13:54:30.386Z,57.59
2019-04-05T13:56:59.654Z,58.26
2019-04-05T13:59:29.301Z,58.15
2019-04-05T14:02:05.926Z,58.27
2019-04-05T14:04:30.071Z,57.52
2019-04-05T14:06:59.852Z,58.49
2019-04-05T14:09:31.562Z,59.05
2019-04-05T14:12:01.540Z,60.19
2019-04-05T14:14:30.817Z,60.72
2019-04-05T14:17:00.429Z,61.06
2019-04-05T14:19:30.790Z,62.55
2019-04-05T14:22:08.360Z,61.89
2019-04-05T14:24:31.366Z,62.61
2019-04-05T14:27:02.915Z,62.52
2019-04-05T14:29:33.357Z,62.68
2019-04-05T14:33:31.982Z,61.67
2019-04-05T14:36:01.247Z,61.00
2019-04-05T14:38:31.418Z,60.99
2019-04-05T14:41:00.974Z,61.56
2019-04-05T14:43:30.253Z,61.27
2019-04-05T14:46:02.777Z,61.75
2019-04-05T14:48:33.247Z,61.94
2019-04-05T14:51:02.626Z,61.15
2019-04-05T14:53:33.004Z,61.13
2019-04-05T14:56:03.337Z,61.31
2019-04-05T14:58:34.230Z,60.81
2019-04-05T15:01:04.050Z,61.11
2019-04-05T15:03:33.327Z,61.15
2019-04-05T15:06:02.603Z,60.94
2019-04-05T15:08:33.894Z,60.40
2019-04-05T15:11:03.508Z,60.62
2019-04-05T15:13:32.767Z,61.51
2019-04-05T15:16:02.421Z,61.41
2019-04-05T15:18:31.757Z,62.28
2019-04-05T15:21:01.337Z,62.65
2019-04-05T15:23:30.935Z,64.02
2019-04-05T15:26:03.003Z,64.80
2019-04-05T15:28:32.612Z,65.28
2019-04-05T15:31:01.908Z,65.44
2019-04-05T15:33:31.147Z,65.92
2019-04-05T15:36:03.107Z,65.66
2019-04-05T15:38:32.474Z,66.14
2019-04-05T15:41:02.597Z,65.58
2019-04-05T15:43:31.968Z,66.13
2019-04-05T15:46:01.311Z,65.85
2019-04-05T15:48:30.581Z,66.08
2019-04-05T15:51:00.645Z,66.31
2019-04-05T15:53:32.225Z,66.47
2019-04-05T15:56:04.351Z,66.63
2019-04-05T15:58:34.114Z,66.97
2019-04-05T16:01:07.628Z,67.45
2019-04-05T16:03:37.101Z,67.86
2019-04-05T16:06:07.435Z,67.83
2019-04-05T16:08:36.698Z,67.65
2019-04-05T16:11:05.990Z,67.67
2019-04-05T16:13:35.300Z,67.78
2019-04-05T16:16:04.782Z,67.15
2019-04-05T16:18:34.410Z,67.38
2019-04-05T16:21:03.650Z,67.22
2019-04-05T16:23:33.236Z,67.04
2019-04-05T16:26:02.535Z,67.01
2019-04-05T16:28:31.791Z,66.97
2019-04-05T16:31:01.057Z,66.79
2019-04-05T16:33:30.714Z,67.14
2019-04-05T16:36:00.355Z,67.55
2019-04-05T16:38:30.057Z,67.27
2019-04-05T16:40:59.286Z,67.26
2019-04-05T16:43:31.434Z,67.29
2019-04-05T16:46:00.970Z,66.79
2019-04-05T16:48:32.381Z,66.98
2019-04-05T16:51:03.320Z,67.28
2019-04-05T16:53:32.791Z,66.97
2019-04-05T16:56:02.357Z,67.26
2019-04-05T16:58:31.707Z,67.03
2019-04-05T17:01:01.756Z,67.18
2019-04-05T17:03:31.031Z,67.74
2019-04-05T17:06:01.566Z,67.84
2019-04-05T17:08:33.860Z,67.89
2019-04-05T17:11:03.155Z,67.86
2019-04-05T17:13:33.191Z,67.71
2019-04-05T17:16:03.107Z,67.91
2019-04-05T17:18:32.829Z,67.56
2019-04-05T17:21:03.814Z,67.62
2019-04-05T17:23:33.416Z,67.72
2019-04-05T17:26:04.082Z,67.95
2019-04-05T17:28:35.335Z,67.88
2019-04-05T17:31:04.955Z,68.16
2019-04-05T17:33:34.589Z,68.18
2019-04-05T17:36:04.009Z,68.65
2019-04-05T17:38:34.289Z,68.05
2019-04-05T17:41:04.179Z,68.10
2019-04-05T17:43:34.447Z,68.01
2019-04-05T17:46:03.817Z,68.32
2019-04-05T17:48:33.181Z,68.22
2019-04-05T17:51:02.943Z,68.50
2019-04-05T17:53:32.544Z,68.78
2019-04-05T17:56:02.278Z,68.74
2019-04-05T17:58:33.371Z,68.71
2019-04-05T18:01:03.104Z,69.03
2019-04-05T18:03:32.837Z,69.55
2019-04-05T18:06:02.471Z,69.45
2019-04-05T18:08:31.704Z,69.49
2019-04-05T18:11:01.356Z,68.95
2019-04-05T18:13:30.692Z,69.29
2019-04-05T18:16:00.139Z,69.28
2019-04-05T18:18:30.024Z,69.50
2019-04-05T18:21:01.047Z,70.06
2019-04-05T18:23:30.399Z,70.58
2019-04-05T18:25:59.702Z,70.97
2019-04-05T18:28:29.028Z,71.37
2019-04-05T18:30:58.303Z,71.89
2019-04-05T18:33:27.651Z,71.89
2019-04-05T18:35:57.098Z,71.65
2019-04-05T18:38:28.341Z,71.82
2019-04-05T18:40:58.024Z,72.26
2019-04-05T18:43:28.912Z,72.49
2019-04-05T18:45:58.327Z,72.39
2019-04-05T18:48:27.944Z,72.74
2019-04-05T18:50:57.873Z,72.55
2019-04-05T18:53:37.000Z,72.64
2019-04-05T18:56:00.967Z,72.88
2019-04-05T18:58:30.233Z,73.13
2019-04-05T19:00:59.876Z,73.08
2019-04-05T19:03:29.192Z,73.02
2019-04-05T19:05:58.618Z,72.85
2019-04-05T19:08:39.015Z,72.70
2019-04-05T19:10:59.756Z,73.10
2019-04-05T19:13:29.242Z,72.61
2019-04-05T19:15:59.853Z,72.82
2019-04-05T19:18:29.587Z,72.96
2019-04-05T19:21:02.364Z,72.80
2019-04-05T19:23:31.939Z,72.46
2019-04-05T19:26:01.192Z,72.55
2019-04-05T19:28:31.698Z,72.39
2019-04-05T19:48:45.268Z,73.24
2019-04-05T19:51:14.887Z,73.60
2019-04-05T19:53:44.174Z,73.17
2019-04-05T19:56:14.204Z,73.52
2019-04-05T19:58:43.825Z,73.41
2019-04-05T20:01:13.090Z,73.67
2019-04-05T20:03:42.368Z,73.72
2019-04-05T20:06:11.651Z,73.39
2019-04-05T20:08:40.938Z,74.00
2019-04-05T20:11:10.532Z,74.28
2019-04-05T20:13:39.762Z,74.51
2019-04-05T20:16:09.424Z,74.68
2019-04-05T20:18:40.389Z,74.34
2019-04-05T20:21:11.225Z,74.37
2019-04-05T20:23:47.413Z,74.44
2019-04-05T20:26:13.077Z,73.90
2019-04-05T20:28:42.388Z,74.34
2019-04-05T20:31:12.015Z,74.48
2019-04-05T20:33:41.298Z,74.52
2019-04-05T20:36:11.679Z,74.13
2019-04-05T20:38:42.576Z,73.24
2019-04-05T20:41:11.847Z,73.20
2019-04-05T20:43:42.232Z,73.15
2019-04-05T20:46:11.496Z,73.36
2019-04-05T20:48:41.108Z,73.71
2019-04-05T20:51:10.416Z,73.30
2019-04-05T20:53:43.285Z,73.18
2019-04-05T20:56:12.707Z,73.51
2019-04-05T20:58:41.997Z,72.85
2019-04-05T21:01:11.347Z,73.68
2019-04-05T21:03:41.425Z,73.37
2019-04-05T21:06:10.723Z,73.08
2019-04-05T21:08:41.304Z,73.14
2019-04-05T21:11:11.003Z,73.43
2019-04-05T21:13:40.334Z,73.17
2019-04-05T21:16:09.568Z,73.17
2019-04-05T21:18:38.861Z,72.92
2019-04-05T21:21:09.414Z,72.93
2019-04-05T21:23:38.724Z,73.47
2019-04-05T21:26:08.356Z,73.37
2019-04-05T21:28:37.608Z,73.45
2019-04-05T21:31:06.877Z,74.02
2019-04-05T21:33:36.137Z,74.25
2019-04-05T21:36:05.818Z,74.51
2019-04-05T21:38:36.532Z,74.60
2019-04-05T21:41:06.087Z,73.90
2019-04-05T21:43:35.781Z,73.58
2019-04-05T21:46:05.039Z,73.65
2019-04-05T21:48:34.310Z,73.76
2019-04-05T21:51:03.562Z,74.00
2019-04-05T21:53:34.214Z,73.68
2019-04-05T21:56:04.977Z,74.16
2019-04-05T21:58:34.215Z,74.51
2019-04-05T22:01:05.815Z,74.32
2019-04-05T22:03:36.538Z,73.98
2019-04-05T22:06:07.760Z,74.30
2019-04-05T22:08:39.142Z,73.66
2019-04-05T22:11:08.397Z,74.25
2019-04-05T22:13:39.794Z,74.01
2019-04-05T22:16:09.159Z,73.77
2019-04-05T22:18:40.268Z,74.21
2019-04-05T22:21:10.252Z,74.07
2019-04-05T22:23:39.477Z,74.45
2019-04-05T22:26:09.478Z,74.17
2019-04-05T22:28:38.744Z,73.91
2019-04-05T22:31:08.005Z,74.16
2019-04-05T22:33:37.690Z,74.42
2019-04-05T22:36:07.964Z,74.67
2019-04-05T22:38:38.504Z,74.70
2019-04-05T22:41:07.838Z,74.92
2019-04-05T22:43:41.038Z,75.23
2019-04-05T22:46:10.285Z,75.11
2019-04-05T22:48:39.545Z,75.09
2019-04-05T22:51:09.146Z,75.46
2019-04-05T22:53:38.668Z,75.53
2019-04-05T22:56:07.968Z,75.44
2019-04-05T22:58:37.215Z,75.43
2019-04-05T23:01:06.764Z,75.45
2019-04-05T23:03:36.774Z,75.39
2019-04-05T23:06:06.055Z,75.36
2019-04-05T23:08:35.316Z,75.48
2019-04-05T23:11:05.212Z,75.88
2019-04-05T23:13:34.945Z,75.89
2019-04-05T23:16:05.670Z,75.74
2019-04-05T23:18:36.744Z,75.82
2019-04-05T23:21:06.970Z,75.84
2019-04-05T23:23:38.024Z,75.83
2019-04-05T23:26:07.661Z,75.74
2019-04-05T23:28:37.301Z,76.10
2019-04-05T23:31:06.684Z,76.05
2019-04-05T23:33:36.493Z,75.84
2019-04-05T23:36:05.849Z,75.99
2019-04-05T23:38:36.108Z,75.96
2019-04-05T23:41:06.877Z,76.12
2019-04-05T23:43:36.458Z,76.37
2019-04-05T23:46:06.018Z,76.39
2019-04-05T23:48:38.007Z,76.39
2019-04-05T23:51:07.290Z,76.55
2019-04-05T23:53:37.657Z,76.62
2019-04-05T23:56:06.942Z,76.63
2019-04-05T23:58:37.897Z,76.85
